Time;durP1;ratioP1;P1;durP2;ratioP2;P2;SDS_P1;SDS_P2;PMS_P1;PMS_P2;Temp;Humidity;BMP_temperature;BMP_pressure;BME280_temperature;BME280_humidity;BME280_pressure;Samples;Min_cycle;Max_cycle;Signal;HPM_P1;HPM_P2
2023/02/16 00:00:41;;;;;;;4.47;3.33;;;;;;;2.53;58.65;101287.69;4338570;33;33912;-88
2023/02/16 00:03:41;;;;;;;3.05;2.90;;;;;;;2.39;58.95;101284.91;4325800;33;34369;-88
2023/02/16 00:06:20;;;;;;;3.87;2.05;;;;;;;2.45;58.65;101287.59;4345074;32;33643;-90
2023/02/16 00:08:55;;;;;;;4.70;2.90;;;;;;;2.49;58.29;101285.91;4353401;32;33839;-89
2023/02/16 00:14:22;;;;;;;0.65;0.65;;;;;;;2.27;58.91;101288.22;4347038;32;34715;-90
2023/02/16 00:17:17;;;;;;;1.30;1.30;;;;;;;2.31;59.11;101290.00;4340583;32;32668;-89
2023/02/16 00:19:49;;;;;;;6.30;3.12;;;;;;;2.21;59.50;101290.75;4341215;32;33443;-89
2023/02/16 00:26:59;;;;;;;;;;;;;;;;;;;;;
2023/02/16 00:33:32;;;;;;;1.55;1.00;;;;;;;2.33;58.69;101276.12;4342086;32;32892;-88
2023/02/16 00:37:20;;;;;;;2.22;2.10;;;;;;;2.33;58.50;101276.12;4362771;32;36067;-88
2023/02/16 00:40:23;;;;;;;0.95;0.95;;;;;;;2.00;59.97;101277.41;4365025;32;33708;-89
2023/02/16 00:44:04;;;;;;;0.70;0.70;;;;;;;2.03;60.00;101267.03;4345642;32;33754;-89
2023/02/16 00:47:33;;;;;;;;;;;;;;;;;;;;;
2023/02/16 01:16:30;;;;;;;0.95;0.95;;;;;;;2.04;58.67;101253.13;4214883;33;34366;-89
2023/02/16 01:24:01;;;;;;;0.65;0.65;;;;;;;1.80;59.61;101256.25;4229222;33;33915;-88
2023/02/16 01:27:34;;;;;;;5.05;4.55;;;;;;;1.80;59.91;101256.25;4235364;33;35143;-89
2023/02/16 01:30:45;;;;;;;;;;;;;;;;;;;;;
2023/02/16 01:33:56;;;;;;;1.42;1.40;;;;;;;1.83;59.20;101247.63;4235552;33;33288;-89
2023/02/16 01:37:15;;;;;;;1.00;1.00;;;;;;;1.90;58.87;101244.25;4261449;33;33159;-88
2023/02/16 01:40:38;;;;;;;2.35;2.10;;;;;;;1.73;59.12;101247.47;4260339;33;32894;-87
2023/02/16 01:44:52;;;;;;;4.55;3.65;;;;;;;1.89;58.55;101245.09;4296038;33;34071;-85
2023/02/16 01:48:28;;;;;;;5.80;1.95;;;;;;;1.55;59.88;101231.56;4312124;33;33581;-87
2023/02/16 01:51:26;;;;;;;1.02;0.93;;;;;;;1.82;58.85;101236.34;4314263;33;33471;-86
2023/02/16 01:54:32;;;;;;;6.07;4.85;;;;;;;1.56;59.82;101233.31;4328885;33;34484;-87
2023/02/16 01:57:22;;;;;;;1.12;1.12;;;;;;;1.52;60.03;101236.75;4344196;32;33015;-86
2023/02/16 02:00:53;;;;;;;0.00;0.00;;;;;;;1.60;60.11;101231.66;4322651;33;34436;-86
2023/02/16 02:06:22;;;;;;;4.72;4.32;;;;;;;1.75;59.13;101235.34;4335619;33;34515;-85
2023/02/16 02:08:58;;;;;;;7.90;2.15;;;;;;;1.71;58.77;101228.38;4320836;33;33064;-86
2023/02/16 02:11:49;;;;;;;2.12;1.98;;;;;;;1.72;58.55;101219.69;4332146;33;34419;-86
2023/02/16 02:14:36;;;;;;;0.50;0.50;;;;;;;1.67;58.18;101213.56;4326810;33;33913;-86
2023/02/16 02:17:10;;;;;;;1.90;1.77;;;;;;;1.66;58.57;101209.22;4345113;32;34152;-87
2023/02/16 02:20:00;;;;;;;1.20;1.20;;;;;;;1.68;58.75;101207.47;4332748;33;33056;-87
2023/02/16 02:25:45;;;;;;;1.40;1.37;;;;;;;1.62;58.77;101202.19;4329473;33;34450;-89
2023/02/16 02:28:30;;;;;;;1.48;1.37;;;;;;;1.39;59.37;101204.44;4347613;32;33071;-89
2023/02/16 02:31:31;;;;;;;2.97;2.78;;;;;;;1.61;58.72;101200.41;4338205;33;34866;-88
2023/02/16 02:34:15;;;;;;;0.47;0.47;;;;;;;1.56;59.32;101201.22;4310806;33;33227;-88
2023/02/16 02:36:52;;;;;;;1.92;1.80;;;;;;;1.67;58.98;101205.75;4332490;33;33694;-88
2023/02/16 02:39:39;;;;;;;2.87;1.55;;;;;;;1.79;58.54;101198.09;4344003;33;33055;-87
2023/02/16 02:42:22;;;;;;;0.37;0.37;;;;;;;1.54;58.69;101203.78;4333635;33;33556;-87
2023/02/16 02:44:54;;;;;;;1.85;1.75;;;;;;;1.56;58.52;101207.28;4345772;32;33508;-89
2023/02/16 02:47:36;;;;;;;1.75;1.65;;;;;;;1.64;58.43;101199.59;4345743;33;33968;-89
2023/02/16 02:50:31;;;;;;;0.37;0.37;;;;;;;1.52;58.79;101197.69;4333009;33;33853;-88
2023/02/16 02:53:04;;;;;;;2.50;2.40;;;;;;;1.52;58.93;101195.09;4332245;33;32747;-90
2023/02/16 03:02:21;;;;;;;1.35;1.35;;;;;;;1.61;58.43;101199.53;4342634;32;32675;-88
2023/02/16 03:09:26;;;;;;;;;;;;;;;;;;;;;
2023/02/16 03:12:55;;;;;;;;;;;;;;;;;;;;;
2023/02/16 03:33:26;;;;;;;1.12;1.10;;;;;;;1.25;59.28;101175.59;4281593;33;33133;-86
2023/02/16 03:37:07;;;;;;;1.75;1.65;;;;;;;1.31;59.05;101179.13;4282302;33;32838;-88
2023/02/16 03:40:31;;;;;;;;;;;;;;;1.24;59.43;101179.03;4294733;33;33459;-89
2023/02/16 03:43:13;;;;;;;0.10;0.10;;;;;;;1.33;58.77;101180.00;4280028;33;33388;-90
2023/02/16 03:45:54;;;;;;;6.22;5.57;;;;;;;1.27;59.07;101178.19;4293259;33;32941;-89
2023/02/16 03:48:33;;;;;;;0.47;0.47;;;;;;;1.18;nan;101178.91;4292266;33;34128;-90
2023/02/16 03:52:04;;;;;;;2.43;2.20;;;;;;;1.07;59.81;101182.22;4319763;33;20151;-90
2023/02/16 04:03:07;;;;;;;5.10;3.00;;;;;;;0.83;59.38;101178.31;4340077;32;34475;-91
2023/02/16 04:06:00;;;;;;;1.05;1.05;;;;;;;1.04;59.05;101167.41;4308628;33;32402;-91
2023/02/16 04:08:45;;;;;;;2.80;1.87;;;;;;;1.08;59.09;101177.03;4318487;33;33096;-91
2023/02/16 04:15:08;;;;;;;0.55;0.55;;;;;;;1.08;58.82;101166.63;4353241;32;33153;-89
2023/02/16 04:18:33;;;;;;;0.75;0.75;;;;;;;1.05;58.97;101170.91;769734;27;21114;-88
2023/02/16 04:21:51;;;;;;;;;;;;;;;0.98;59.07;101169.91;4306383;33;34522;-90
2023/02/16 04:32:12;;;;;;;2.15;1.95;;;;;;;0.99;59.56;101174.25;4320695;32;34316;-90
2023/02/16 04:45:13;;;;;;;2.45;2.33;;;;;;;1.03;59.60;101173.47;4343117;32;32476;-87
2023/02/16 04:47:58;;;;;;;2.45;2.35;;;;;;;1.07;59.16;101180.47;4335024;33;34928;-89
2023/02/16 04:50:37;;;;;;;0.62;0.62;;;;;;;0.90;60.21;101181.91;4326705;33;32291;-89
2023/02/16 04:54:45;;;;;;;;;;;;;;;;;;;;;
2023/02/16 04:58:55;;;;;;;1.33;1.33;;;;;;;1.05;59.28;101176.13;4312852;33;33946;-87
2023/02/16 05:24:34;;;;;;;0.80;0.80;;;;;;;0.93;59.30;101168.97;4304242;33;34530;-88
2023/02/16 05:34:56;;;;;;;0.30;0.30;;;;;;;0.76;59.04;101173.88;4330132;32;34232;-87
2023/02/16 05:51:34;;;;;;;2.60;2.22;;;;;;;0.96;59.04;101163.81;4377175;32;32592;-89
2023/02/16 05:54:33;;;;;;;1.90;1.80;;;;;;;0.79;59.70;101167.84;4352025;32;33496;-89
2023/02/16 06:01:04;;;;;;;5.03;4.60;;;;;;;0.78;59.59;101166.97;4342841;33;33100;-86
2023/02/16 06:03:37;;;;;;;5.68;5.20;;;;;;;0.88;59.32;101165.41;4312000;33;32550;-87
2023/02/16 06:10:02;;;;;;;3.42;3.28;;;;;;;0.92;58.91;101165.50;4270142;33;34600;-90
2023/02/16 06:13:12;;;;;;;6.03;2.75;;;;;;;1.11;58.78;101165.81;4271303;33;32730;-88
2023/02/16 06:16:32;;;;;;;2.42;2.33;;;;;;;1.08;58.73;101156.22;1104812;28;20359;-87
2023/02/16 06:24:16;;;;;;;2.22;2.10;;;;;;;1.16;58.89;101159.81;4245158;33;35436;-91
2023/02/16 06:27:56;;;;;;;;;;;;;;;;;;;;;
2023/02/16 06:31:14;;;;;;;5.18;4.85;;;;;;;0.87;59.88;101156.72;4354792;32;34663;-88
2023/02/16 06:34:37;;;;;;;3.40;2.30;;;;;;;0.99;59.91;101166.47;4368668;32;34527;-88
2023/02/16 06:37:53;;;;;;;1.95;1.77;;;;;;;1.26;59.62;101168.66;4379846;32;32788;-88
2023/02/16 06:40:55;;;;;;;2.30;1.92;;;;;;;1.10;60.05;101167.53;4389296;32;34086;-88
2023/02/16 06:44:06;;;;;;;4.43;2.72;;;;;;;1.24;60.00;101163.44;4366452;32;32830;-88
2023/02/16 06:50:21;;;;;;;3.00;2.80;;;;;;;1.18;60.82;101159.84;4389442;32;33305;-88
2023/02/16 06:53:21;;;;;;;4.68;4.25;;;;;;;1.30;60.69;101154.84;4381461;32;34425;-88
2023/02/16 06:56:23;;;;;;;0.43;0.43;;;;;;;1.53;60.23;101155.19;4375459;32;33922;-88
2023/02/16 06:59:46;;;;;;;5.22;3.92;;;;;;;1.62;60.50;101152.72;4375786;32;34710;-85
2023/02/16 07:02:17;;;;;;;3.37;3.12;;;;;;;1.67;60.97;101148.47;4381644;32;34320;-89
2023/02/16 07:04:45;;;;;;;9.30;4.72;;;;;;;1.73;61.38;101147.66;4377813;32;34201;-88
2023/02/16 07:07:21;;;;;;;1.85;1.75;;;;;;;1.93;60.90;101145.31;4365412;32;34087;-90
2023/02/16 07:09:49;;;;;;;5.28;3.47;;;;;;;1.94;61.17;101144.47;4370529;32;33832;-87
2023/02/16 07:12:21;;;;;;;3.62;3.33;;;;;;;2.05;61.01;101141.16;4373117;32;33276;-88
2023/02/16 07:14:51;;;;;;;3.33;2.62;;;;;;;2.21;60.62;101136.97;4371461;32;34255;-90
2023/02/16 07:17:21;;;;;;;1.23;1.23;;;;;;;2.21;61.10;101139.59;4382410;32;34792;-87
2023/02/16 07:19:50;;;;;;;1.77;1.67;;;;;;;2.32;61.15;101150.12;4374279;32;33080;-87
2023/02/16 07:22:20;;;;;;;2.15;1.90;;;;;;;2.42;60.98;101157.22;4392772;32;33144;-88
2023/02/16 07:24:51;;;;;;;3.95;3.75;;;;;;;2.46;61.29;101147.69;4386937;32;33201;-88
2023/02/16 07:27:19;;;;;;;11.45;3.37;;;;;;;2.63;61.17;101150.47;4371931;32;33147;-89
2023/02/16 07:29:49;;;;;;;0.85;0.85;;;;;;;2.81;60.93;101148.94;4379247;32;34676;-88
2023/02/16 07:32:24;;;;;;;3.83;2.10;;;;;;;2.75;61.59;101155.81;4366797;32;34702;-88
2023/02/16 07:34:52;;;;;;;4.78;4.35;;;;;;;2.89;61.79;101156.81;4397544;32;33809;-88
2023/02/16 07:37:21;;;;;;;1.52;1.42;;;;;;;3.07;61.54;101146.53;4370267;32;33231;-87
2023/02/16 07:39:51;;;;;;;4.03;2.92;;;;;;;3.16;62.03;101148.34;4368972;32;34089;-88
2023/02/16 07:42:30;;;;;;;4.55;4.12;;;;;;;3.17;62.75;101147.47;4395618;32;33044;-88
2023/02/16 07:45:01;;;;;;;3.53;2.75;;;;;;;3.27;62.78;101138.00;4378989;32;34190;-88
2023/02/16 07:47:34;;;;;;;3.60;3.30;;;;;;;3.37;63.22;101132.00;4375741;32;34652;-87
2023/02/16 07:52:40;;;;;;;1.80;1.70;;;;;;;3.74;62.94;101130.47;4384154;32;33613;-87
2023/02/16 07:55:10;;;;;;;4.57;4.20;;;;;;;3.94;62.92;101132.28;4384568;32;31625;-87
2023/02/16 07:57:39;;;;;;;1.75;1.62;;;;;;;4.27;62.01;101127.22;4384307;32;34382;-87
2023/02/16 08:02:53;;;;;;;2.80;2.70;;;;;;;4.26;62.85;101129.81;4381782;32;33489;-87
2023/02/16 08:05:22;;;;;;;3.37;2.90;;;;;;;4.62;62.14;101131.66;4395923;32;33062;-87
2023/02/16 08:07:52;;;;;;;5.57;5.07;;;;;;;4.53;62.61;101131.66;4382641;32;32838;-87
2023/02/16 08:10:20;;;;;;;2.92;2.78;;;;;;;4.69;62.63;101138.63;4396906;32;33945;-87
2023/02/16 08:12:57;;;;;;;18.20;4.57;;;;;;;4.55;63.17;101141.22;4380617;32;33589;-87
2023/02/16 08:15:40;;;;;;;4.45;4.05;;;;;;;4.77;62.91;101123.84;4390114;32;32102;-87
2023/02/16 08:18:20;;;;;;;5.68;3.92;;;;;;;5.33;62.02;101127.34;4389629;32;35032;-87
2023/02/16 08:20:48;;;;;;;3.97;3.60;;;;;;;5.52;61.62;101130.81;4378290;32;33908;-87
2023/02/16 08:23:31;;;;;;;;;;;;;;;5.78;60.85;101118.50;4396140;32;33052;-87
2023/02/16 08:26:10;;;;;;;2.30;2.20;;;;;;;5.89;60.68;101126.34;4394179;32;32658;-87
2023/02/16 08:28:46;;;;;;;4.20;3.83;;;;;;;5.90;60.70;101126.31;4385829;32;33335;-87
2023/02/16 08:31:21;;;;;;;3.95;3.65;;;;;;;6.21;59.22;101126.22;4396256;32;33065;-87
2023/02/16 08:33:52;;;;;;;7.72;3.67;;;;;;;5.99;60.28;101119.34;4383017;32;32811;-87
2023/02/16 08:36:25;;;;;;;4.05;2.62;;;;;;;6.07;60.61;101128.91;4383787;32;32032;-87
2023/02/16 08:38:55;;;;;;;2.75;2.47;;;;;;;6.07;60.92;101126.28;4395830;32;33315;-87
2023/02/16 08:41:31;;;;;;;7.00;6.40;;;;;;;6.14;60.65;101140.25;4396847;32;33458;-89
2023/02/16 08:46:39;;;;;;;2.85;2.65;;;;;;;6.67;59.79;101125.97;4372505;32;32600;-88
2023/02/16 08:49:10;;;;;;;;;;;;;;;6.85;59.05;101128.47;4387604;32;34017;-87
2023/02/16 08:51:42;;;;;;;1.30;1.30;;;;;;;6.83;59.73;101127.59;4393723;32;32851;-87
2023/02/16 08:54:29;;;;;;;9.18;6.25;;;;;;;7.03;59.49;101126.62;4373874;32;34302;-87
2023/02/16 08:57:03;;;;;;;3.40;2.80;;;;;;;7.49;58.60;101118.28;4402485;32;34256;-87
2023/02/16 08:59:38;;;;;;;4.62;4.22;;;;;;;7.82;57.32;101111.81;4385126;32;32762;-87
2023/02/16 09:02:14;;;;;;;4.32;3.08;;;;;;;7.60;58.05;101117.31;4373838;32;32623;-87
2023/02/16 09:04:44;;;;;;;9.90;3.33;;;;;;;7.74;57.67;101118.91;4382640;32;33358;-87
2023/02/16 09:07:15;;;;;;;4.10;3.70;;;;;;;8.07;57.47;101115.00;4373734;32;32870;-87
2023/02/16 09:09:44;;;;;;;5.57;5.07;;;;;;;8.06;57.93;101106.25;4372288;32;32894;-87
2023/02/16 09:12:14;;;;;;;3.70;3.30;;;;;;;7.99;58.43;101111.63;4409940;32;33163;-86
2023/02/16 09:14:45;;;;;;;15.07;4.65;;;;;;;8.35;57.92;101111.13;4394643;32;33786;-87
2023/02/16 09:17:15;;;;;;;4.22;2.70;;;;;;;8.42;58.21;101109.31;4397640;32;34259;-86
2023/02/16 09:19:44;;;;;;;7.70;3.80;;;;;;;8.65;58.14;101107.25;4386796;32;34377;-88
2023/02/16 09:22:20;;;;;;;16.15;6.30;;;;;;;8.80;57.94;101108.75;4388780;32;33697;-89
2023/02/16 09:24:52;;;;;;;6.05;5.60;;;;;;;8.74;57.16;101105.38;4383516;32;33943;-89
2023/02/16 09:27:26;;;;;;;14.10;4.72;;;;;;;8.54;56.88;101108.28;4388988;32;34057;-89
2023/02/16 09:29:59;;;;;;;4.97;3.28;;;;;;;8.96;55.70;101107.63;4390976;32;34322;-89
2023/02/16 09:32:47;;;;;;;3.62;2.40;;;;;;;9.12;55.57;101102.13;4382197;32;33715;-89
2023/02/16 09:35:38;;;;;;;8.40;4.37;;;;;;;9.45;54.78;101101.53;4392118;32;32852;-89
2023/02/16 09:38:23;;;;;;;3.83;3.40;;;;;;;9.21;54.21;101104.59;4369847;32;33277;-89
2023/02/16 09:41:11;;;;;;;6.45;3.55;;;;;;;9.46;53.41;101105.88;4372685;32;33556;-90
2023/02/16 09:44:11;;;;;;;7.82;3.75;;;;;;;9.47;53.29;101110.25;4391919;32;33633;-89
2023/02/16 09:46:46;;;;;;;8.60;5.25;;;;;;;9.94;52.85;101107.59;4376873;32;34118;-87
2023/02/16 09:49:38;;;;;;;4.60;4.22;;;;;;;9.69;52.58;101102.81;4369451;32;32760;-90
2023/02/16 09:52:39;;;;;;;11.68;7.05;;;;;;;9.64;53.15;101106.44;4373499;32;34895;-89
2023/02/16 09:55:15;;;;;;;6.75;5.50;;;;;;;10.06;53.03;101109.13;4381749;32;32950;-89
2023/02/16 09:58:08;;;;;;;4.47;4.18;;;;;;;10.40;51.79;101101.41;4387869;32;33902;-88
2023/02/16 10:01:19;;;;;;;7.07;6.43;;;;;;;10.58;51.80;101094.81;4385275;32;33781;-89
2023/02/16 10:04:10;;;;;;;6.93;4.20;;;;;;;10.21;51.22;101098.25;4365829;32;33386;-88
2023/02/16 10:07:15;;;;;;;4.70;4.37;;;;;;;10.40;51.13;101091.69;4378854;32;33292;-89
2023/02/16 10:09:52;;;;;;;4.80;4.43;;;;;;;10.43;51.41;101094.25;4370762;32;33146;-89
2023/02/16 10:12:40;;;;;;;25.88;6.05;;;;;;;10.57;50.77;101091.31;4385138;32;36016;-89
2023/02/16 10:18:25;;;;;;;4.05;3.75;;;;;;;10.96;49.75;101089.47;4384660;32;34578;-88
2023/02/16 10:21:03;;;;;;;5.18;4.50;;;;;;;11.36;49.60;101083.19;4394529;32;33319;-88
2023/02/16 10:23:48;;;;;;;7.35;5.62;;;;;;;11.36;48.16;101072.59;4371123;32;32763;-89
2023/02/16 10:34:25;;;;;;;3.45;3.15;;;;;;;11.84;47.89;101080.13;4305992;33;34053;-89
2023/02/16 10:37:39;;;;;;;2.62;2.42;;;;;;;12.10;46.19;101070.56;4302680;33;33675;-88
2023/02/16 10:47:03;;;;;;;9.73;4.55;;;;;;;12.45;45.86;101065.06;4315895;33;33326;-89
2023/02/16 10:49:40;;;;;;;5.00;3.60;;;;;;;12.38;46.48;101060.84;4296360;33;32664;-88
2023/02/16 10:52:17;;;;;;;4.53;3.97;;;;;;;12.39;45.65;101057.31;4311043;33;33868;-88
2023/02/16 10:54:54;;;;;;;6.60;2.97;;;;;;;12.51;44.43;101054.25;4304318;33;34844;-87
2023/02/16 10:57:29;;;;;;;7.90;3.80;;;;;;;12.63;44.80;101052.12;4285297;33;34403;-87
2023/02/16 11:00:09;;;;;;;6.20;5.18;;;;;;;12.43;44.81;101052.78;4292085;33;34194;-88
2023/02/16 11:03:02;;;;;;;4.35;3.67;;;;;;;12.87;45.00;101046.06;4302507;33;35026;-87
2023/02/16 11:05:37;;;;;;;8.95;4.37;;;;;;;13.05;43.71;101042.78;4318754;33;36665;-88
2023/02/16 11:08:12;;;;;;;8.57;4.50;;;;;;;13.41;43.35;101039.78;4351565;32;32939;-88
2023/02/16 11:10:53;;;;;;;6.47;4.45;;;;;;;13.19;42.77;101028.16;4367637;32;34052;-88
2023/02/16 11:13:32;;;;;;;4.45;4.03;;;;;;;12.78;44.19;101038.41;4388858;32;33366;-88
2023/02/16 11:16:20;;;;;;;6.00;3.28;;;;;;;13.46;42.60;101032.53;4379606;32;34787;-88
2023/02/16 11:18:59;;;;;;;7.50;6.20;;;;;;;13.21;43.61;101029.00;4395290;32;32944;-88
2023/02/16 11:29:50;;;;;;;4.93;4.55;;;;;;;13.62;43.23;101021.34;4252018;33;35670;-88
2023/02/16 11:32:33;;;;;;;6.75;4.05;;;;;;;13.77;42.35;101015.50;4269584;33;33931;-87
2023/02/16 11:42:45;;;;;;;5.47;3.53;;;;;;;13.67;43.45;100998.16;4334978;33;33993;-88
2023/02/16 11:48:30;;;;;;;8.15;4.95;;;;;;;14.36;41.77;100991.03;4314088;33;32635;-88
2023/02/16 11:51:09;;;;;;;4.00;3.60;;;;;;;14.23;41.78;100997.75;4299952;33;34057;-88
2023/02/16 11:54:02;;;;;;;13.23;4.22;;;;;;;14.59;41.69;100991.00;4330851;33;34072;-88
2023/02/16 11:56:35;;;;;;;10.05;4.60;;;;;;;14.70;41.92;100987.88;4309056;33;33879;-88
2023/02/16 11:59:19;;;;;;;3.60;3.30;;;;;;;15.12;39.53;100979.00;4322117;33;32705;-88
2023/02/16 12:02:05;;;;;;;2.12;2.03;;;;;;;15.13;39.01;100974.53;4297390;33;34012;-88
2023/02/16 12:05:06;;;;;;;5.53;4.07;;;;;;;14.80;39.95;100975.06;4332308;33;33140;-88
2023/02/16 12:08:05;;;;;;;3.25;2.80;;;;;;;14.80;40.02;100967.09;4406073;32;33864;-88
2023/02/16 12:11:02;;;;;;;3.75;3.17;;;;;;;14.54;42.17;100969.06;4393826;32;32329;-87
2023/02/16 12:17:33;;;;;;;8.95;3.72;;;;;;;14.19;41.82;100953.66;4389119;32;33875;-88
2023/02/16 12:20:51;;;;;;;4.93;3.40;;;;;;;14.55;41.38;100954.84;4404327;32;33636;-88
2023/02/16 12:23:58;;;;;;;15.07;4.55;;;;;;;14.53;41.22;100948.75;4372183;32;33001;-88
2023/02/16 12:26:43;;;;;;;5.07;3.53;;;;;;;14.09;42.07;100939.88;4381099;32;33076;-88
2023/02/16 12:29:43;;;;;;;4.65;4.25;;;;;;;13.67;43.54;100945.94;4392773;32;33432;-88
2023/02/16 12:32:40;;;;;;;;;;;;;;;;;;;;;
2023/02/16 12:36:19;;;;;;;12.80;4.25;;;;;;;13.93;43.21;100941.44;4383662;32;33218;-88
2023/02/16 12:43:02;;;;;;;2.92;2.65;;;;;;;13.55;44.53;100936.66;4356360;32;33664;-87
2023/02/16 12:45:46;;;;;;;4.40;3.37;;;;;;;13.89;43.33;100924.75;4387027;32;34632;-88
2023/02/16 12:48:27;;;;;;;5.35;3.35;;;;;;;13.71;43.54;100920.16;4382872;32;32715;-87
2023/02/16 12:51:02;;;;;;;7.60;4.57;;;;;;;13.86;43.85;100916.03;4386157;32;33138;-88
2023/02/16 12:53:46;;;;;;;3.28;3.08;;;;;;;14.44;42.15;100911.87;4384878;32;33439;-88
2023/02/16 12:56:31;;;;;;;5.18;4.20;;;;;;;14.45;41.75;100908.28;4364176;32;33423;-88
2023/02/16 12:59:23;;;;;;;4.32;4.00;;;;;;;14.64;40.93;100897.78;4404464;32;32313;-88
2023/02/16 13:02:04;;;;;;;5.43;3.97;;;;;;;14.56;41.48;100898.09;4381138;32;33745;-87
2023/02/16 13:04:50;;;;;;;9.18;3.72;;;;;;;13.97;43.32;100898.75;4382854;32;33908;-88
2023/02/16 13:07:32;;;;;;;14.20;4.35;;;;;;;14.09;42.71;100892.06;4392730;32;34804;-88
2023/02/16 13:10:23;;;;;;;5.10;3.12;;;;;;;14.09;42.82;100890.28;4378265;32;35162;-88
2023/02/16 13:13:17;;;;;;;7.07;3.85;;;;;;;14.35;41.56;100875.94;4388421;32;33803;-89
2023/02/16 13:15:53;;;;;;;6.93;4.32;;;;;;;13.95;42.88;100881.13;4364487;32;33945;-87
2023/02/16 13:18:25;;;;;;;7.37;4.62;;;;;;;14.11;41.82;100870.78;4355920;32;31764;-88
2023/02/16 13:21:14;;;;;;;9.38;4.20;;;;;;;14.26;42.31;100876.31;4372678;32;34838;-88
2023/02/16 13:26:56;;;;;;;4.12;3.45;;;;;;;13.87;42.54;100868.19;4389935;32;34264;-88
2023/02/16 13:32:52;;;;;;;7.82;3.53;;;;;;;14.40;42.11;100857.13;4382708;32;34622;-88
2023/02/16 13:35:36;;;;;;;11.68;5.05;;;;;;;14.64;41.60;100865.00;4381117;32;33317;-88
2023/02/16 13:38:50;;;;;;;2.75;2.60;;;;;;;14.48;41.88;100855.06;4383407;32;34769;-88
2023/02/16 13:41:48;;;;;;;16.90;5.47;;;;;;;14.16;42.80;100853.72;4380259;32;33973;-88
2023/02/16 13:44:34;;;;;;;2.37;2.25;;;;;;;14.26;42.57;100854.19;4384120;32;32326;-88
2023/02/16 13:47:21;;;;;;;5.10;4.68;;;;;;;14.04;43.57;100854.22;4368791;32;34291;-87
2023/02/16 13:50:00;;;;;;;3.10;2.70;;;;;;;14.32;42.79;100853.94;4374315;32;33390;-88
2023/02/16 13:52:38;;;;;;;3.10;2.87;;;;;;;14.16;43.62;100852.84;4381647;32;33365;-88
2023/02/16 13:55:36;;;;;;;3.85;2.97;;;;;;;14.15;43.25;100848.44;4382456;32;34128;-88
2023/02/16 14:01:56;;;;;;;11.15;4.12;;;;;;;13.93;44.43;100846.69;4319873;33;34384;-88
2023/02/16 14:04:33;;;;;;;7.25;4.53;;;;;;;14.33;43.30;100840.56;4325370;32;33126;-88
2023/02/16 14:07:52;;;;;;;11.10;7.03;;;;;;;14.27;43.15;100850.59;4383082;32;32256;-88
2023/02/16 14:10:58;;;;;;;8.43;3.42;;;;;;;14.32;43.67;100846.81;4351790;32;33203;-88
2023/02/16 14:13:40;;;;;;;8.77;6.15;;;;;;;13.69;44.97;100845.91;4379690;32;33196;-88
2023/02/16 14:16:32;;;;;;;6.00;5.43;;;;;;;13.98;44.41;100841.19;4394412;32;34442;-88
2023/02/16 14:19:26;;;;;;;3.25;2.97;;;;;;;13.96;44.07;100841.28;4355798;32;33252;-88
2023/02/16 14:22:17;;;;;;;3.33;3.00;;;;;;;13.65;44.85;100846.09;4383474;32;34170;-86
2023/02/16 14:24:54;;;;;;;4.35;2.83;;;;;;;13.62;45.06;100841.75;4390597;32;34321;-87
2023/02/16 14:27:48;;;;;;;5.25;4.85;;;;;;;13.21;45.89;100846.00;4367022;32;33538;-88
2023/02/16 14:30:25;;;;;;;6.55;3.33;;;;;;;13.53;45.27;100835.03;4364903;32;32821;-87
2023/02/16 14:33:14;;;;;;;3.42;3.10;;;;;;;13.57;44.77;100839.28;4395370;32;34293;-87
2023/02/16 14:35:59;;;;;;;2.42;2.28;;;;;;;13.62;45.14;100840.87;4377598;32;33731;-85
2023/02/16 14:38:35;;;;;;;5.57;3.40;;;;;;;13.67;44.77;100849.53;4367658;32;33182;-86
2023/02/16 14:41:12;;;;;;;22.08;3.15;;;;;;;13.49;45.60;100843.19;4382807;32;33895;-86
2023/02/16 14:43:46;;;;;;;6.20;3.80;;;;;;;13.23;46.14;100839.72;4383261;32;33084;-86
2023/02/16 14:46:47;;;;;;;3.78;3.10;;;;;;;13.39;45.46;100840.03;4371555;32;34333;-85
2023/02/16 14:49:44;;;;;;;3.37;3.08;;;;;;;13.51;45.32;100828.91;4360282;32;31898;-86
2023/02/16 14:52:35;;;;;;;2.08;1.80;;;;;;;13.33;45.94;100840.22;4382222;32;34325;-87
2023/02/16 14:58:23;;;;;;;4.45;4.12;;;;;;;12.96;47.62;100840.72;4383175;32;34449;-87
2023/02/16 15:01:06;;;;;;;4.78;3.75;;;;;;;13.14;47.29;100831.22;4376565;32;34107;-87
2023/02/16 15:03:55;;;;;;;3.90;2.72;;;;;;;13.23;47.12;100833.56;4374583;32;32880;-86
2023/02/16 15:06:43;;;;;;;6.55;3.60;;;;;;;13.49;46.26;100837.88;4383891;32;33641;-86
2023/02/16 15:09:32;;;;;;;6.43;2.92;;;;;;;13.26;46.69;100836.09;4383151;32;34558;-86
2023/02/16 15:12:22;;;;;;;4.15;3.85;;;;;;;12.99;47.30;100841.47;4367403;32;34597;-86
2023/02/16 15:15:09;;;;;;;6.45;3.15;;;;;;;13.13;46.96;100840.97;4353988;32;33591;-86
2023/02/16 15:20:36;;;;;;;11.50;4.10;;;;;;;12.93;47.38;100835.56;4375200;32;33130;-86
2023/02/16 15:26:19;;;;;;;5.00;4.60;;;;;;;12.50;48.65;100837.09;4361057;32;32955;-86
2023/02/16 15:29:05;;;;;;;12.40;4.28;;;;;;;12.57;48.46;100831.50;4364413;32;32829;-86
2023/02/16 15:31:51;;;;;;;4.35;4.05;;;;;;;12.62;48.35;100830.47;4386186;32;35535;-86
2023/02/16 15:34:35;;;;;;;6.40;5.18;;;;;;;12.79;47.77;100828.09;4375345;32;34559;-86
2023/02/16 15:38:12;;;;;;;;;;;;;;;;;;;;;
2023/02/16 15:43:26;;;;;;;7.93;3.85;;;;;;;12.41;48.96;100842.72;4364563;32;33300;-86
2023/02/16 15:46:01;;;;;;;26.50;8.52;;;;;;;12.70;47.98;100839.03;4376338;32;33643;-86
2023/02/16 15:48:38;;;;;;;11.45;8.52;;;;;;;12.65;48.00;100833.03;4348433;32;33315;-86
2023/02/16 15:51:36;;;;;;;5.03;4.55;;;;;;;12.72;47.66;100840.72;4376813;32;32276;-86
2023/02/16 15:55:16;;;;;;;4.25;2.28;;;;;;;12.17;48.98;100841.75;4371925;32;34220;-86
2023/02/16 15:58:43;;;;;;;3.28;2.30;;;;;;;11.94;49.53;100843.37;4376570;32;32853;-86
2023/02/16 16:04:22;;;;;;;3.95;3.75;;;;;;;11.70;50.14;100834.44;4374473;32;35373;-86
2023/02/16 16:07:15;;;;;;;2.87;2.65;;;;;;;11.54;50.45;100834.06;4377438;32;34921;-86
2023/02/16 16:10:00;;;;;;;3.70;3.15;;;;;;;11.59;50.30;100831.25;4374986;32;34637;-86
2023/02/16 16:12:35;;;;;;;4.40;2.80;;;;;;;11.67;50.08;100831.00;4363377;32;34296;-85
2023/02/16 16:18:07;;;;;;;4.40;3.04;;;;;;;11.65;50.06;100831.06;4159557;32;6749251;-86
2023/02/16 16:21:32;;;;;;;6.15;4.22;;;;;;;11.53;49.98;100831.44;4391482;32;34539;-86
2023/02/16 16:24:05;;;;;;;4.55;3.70;;;;;;;11.59;49.78;100830.41;4379082;32;32827;-86
2023/02/16 16:26:52;;;;;;;12.52;4.22;;;;;;;11.43;49.98;100830.00;4364712;32;33539;-86
2023/02/16 16:29:34;;;;;;;9.88;4.55;;;;;;;11.40;50.00;100838.03;4377854;32;33499;-86
2023/02/16 16:32:17;;;;;;;3.62;3.37;;;;;;;11.22;50.22;100836.81;4387187;32;33055;-86
2023/02/16 16:34:56;;;;;;;8.80;5.53;;;;;;;11.15;50.36;100836.09;4377902;32;33507;-86
2023/02/16 16:37:39;;;;;;;7.12;4.25;;;;;;;11.01;50.59;100838.28;4378040;32;33552;-87
2023/02/16 16:40:18;;;;;;;3.80;3.53;;;;;;;11.02;50.51;100837.41;4378271;32;32660;-86
2023/02/16 16:43:06;;;;;;;5.30;4.90;;;;;;;10.84;50.95;100836.16;4391027;32;34671;-86
2023/02/16 16:45:43;;;;;;;7.72;5.47;;;;;;;10.58;51.51;100843.91;4403957;32;33085;-86
2023/02/16 16:48:19;;;;;;;2.53;2.33;;;;;;;10.51;51.75;100848.50;4388188;32;34128;-85
2023/02/16 16:51:26;;;;;;;4.62;3.33;;;;;;;10.52;51.58;100850.22;4389373;32;33769;-86
2023/02/16 16:54:10;;;;;;;8.13;3.78;;;;;;;10.47;51.42;100852.12;4367843;32;36238;-86
2023/02/16 16:56:41;;;;;;;2.72;2.60;;;;;;;10.37;51.50;100855.91;4364720;32;33005;-86
2023/02/16 17:04:58;;;;;;;1.92;1.83;;;;;;;10.10;51.80;100854.81;4367141;32;33665;-86
2023/02/16 17:07:36;;;;;;;6.03;5.43;;;;;;;9.94;52.01;100855.19;4385392;32;32938;-86
2023/02/16 17:10:17;;;;;;;3.03;2.83;;;;;;;9.55;53.10;100851.72;4375251;32;33617;-86
2023/02/16 17:12:58;;;;;;;4.82;4.28;;;;;;;9.63;52.84;100856.81;4391446;32;33777;-86
2023/02/16 17:15:35;;;;;;;3.53;2.80;;;;;;;9.56;52.82;100853.44;4373627;32;33436;-86
2023/02/16 17:18:15;;;;;;;7.20;5.72;;;;;;;9.60;52.29;100848.97;4350042;32;32443;-85
2023/02/16 17:20:52;;;;;;;4.45;4.05;;;;;;;9.35;52.93;100868.00;4381121;32;34381;-86
2023/02/16 17:23:38;;;;;;;3.33;3.03;;;;;;;9.23;53.05;100860.34;4376728;32;34694;-86
2023/02/16 17:26:22;;;;;;;3.75;3.45;;;;;;;9.07;53.26;100862.44;4377848;32;32957;-86
2023/02/16 17:29:00;;;;;;;7.43;5.75;;;;;;;9.04;53.34;100846.69;4363878;32;35104;-86
2023/02/16 17:34:13;;;;;;;3.55;3.20;;;;;;;8.94;53.31;100846.00;4366845;32;33036;-86